sensor_id;sensor_type;location;lat;lon;timestamp;temperature;humidity
69895;DHT22;57172;52.034;5.090;2024-03-02T00:01:23;9.30;75.50
69895;DHT22;57172;52.034;5.090;2024-03-02T00:03:50;9.20;75.90
69895;DHT22;57172;52.034;5.090;2024-03-02T00:06:21;9.20;76.30
69895;DHT22;57172;52.034;5.090;2024-03-02T00:08:48;9.10;76.60
69895;DHT22;57172;52.034;5.090;2024-03-02T00:11:16;9.00;77.10
69895;DHT22;57172;52.034;5.090;2024-03-02T00:13:43;8.80;77.70
69895;DHT22;57172;52.034;5.090;2024-03-02T00:16:10;8.70;78.80
69895;DHT22;57172;52.034;5.090;2024-03-02T00:18:37;8.50;79.30
69895;DHT22;57172;52.034;5.090;2024-03-02T00:21:06;8.40;80.00
69895;DHT22;57172;52.034;5.090;2024-03-02T00:23:36;8.30;80.90
69895;DHT22;57172;52.034;5.090;2024-03-02T00:26:03;8.20;80.70
69895;DHT22;57172;52.034;5.090;2024-03-02T00:28:33;8.20;81.90
69895;DHT22;57172;52.034;5.090;2024-03-02T00:33:42;8.00;82.60
69895;DHT22;57172;52.034;5.090;2024-03-02T00:36:12;8.00;82.50
69895;DHT22;57172;52.034;5.090;2024-03-02T00:38:49;8.00;83.20
69895;DHT22;57172;52.034;5.090;2024-03-02T00:41:19;8.00;84.10
69895;DHT22;57172;52.034;5.090;2024-03-02T00:46:29;7.80;85.70
69895;DHT22;57172;52.034;5.090;2024-03-02T00:48:59;7.70;86.20
69895;DHT22;57172;52.034;5.090;2024-03-02T00:51:29;7.60;86.50
69895;DHT22;57172;52.034;5.090;2024-03-02T00:53:59;7.60;86.70
69895;DHT22;57172;52.034;5.090;2024-03-02T00:56:26;7.60;86.90
69895;DHT22;57172;52.034;5.090;2024-03-02T00:58:53;7.60;87.60
69895;DHT22;57172;52.034;5.090;2024-03-02T01:01:20;7.50;88.20
69895;DHT22;57172;52.034;5.090;2024-03-02T01:03:48;7.50;88.30
69895;DHT22;57172;52.034;5.090;2024-03-02T01:06:16;7.50;88.50
69895;DHT22;57172;52.034;5.090;2024-03-02T01:08:43;7.50;88.70
69895;DHT22;57172;52.034;5.090;2024-03-02T01:11:10;7.50;88.80
69895;DHT22;57172;52.034;5.090;2024-03-02T01:13:38;7.50;89.00
69895;DHT22;57172;52.034;5.090;2024-03-02T01:16:05;7.50;89.40
69895;DHT22;57172;52.034;5.090;2024-03-02T01:18:32;7.50;89.60
69895;DHT22;57172;52.034;5.090;2024-03-02T01:20:59;7.50;89.80
69895;DHT22;57172;52.034;5.090;2024-03-02T01:23:26;7.50;89.70
69895;DHT22;57172;52.034;5.090;2024-03-02T01:25:52;7.40;90.00
69895;DHT22;57172;52.034;5.090;2024-03-02T01:28:19;7.50;89.90
69895;DHT22;57172;52.034;5.090;2024-03-02T01:30:48;7.50;90.10
69895;DHT22;57172;52.034;5.090;2024-03-02T01:33:19;7.40;90.10
69895;DHT22;57172;52.034;5.090;2024-03-02T01:35:46;7.50;90.10
69895;DHT22;57172;52.034;5.090;2024-03-02T01:38:14;7.50;90.10
69895;DHT22;57172;52.034;5.090;2024-03-02T01:40:42;7.40;90.20
69895;DHT22;57172;52.034;5.090;2024-03-02T01:43:08;7.40;90.30
69895;DHT22;57172;52.034;5.090;2024-03-02T01:45:36;7.40;90.40
69895;DHT22;57172;52.034;5.090;2024-03-02T01:48:05;7.40;90.60
69895;DHT22;57172;52.034;5.090;2024-03-02T01:50:33;7.30;90.70
69895;DHT22;57172;52.034;5.090;2024-03-02T01:53:00;7.30;90.80
69895;DHT22;57172;52.034;5.090;2024-03-02T01:55:27;7.40;90.90
69895;DHT22;57172;52.034;5.090;2024-03-02T01:57:56;7.30;91.00
69895;DHT22;57172;52.034;5.090;2024-03-02T02:00:24;7.30;91.00
69895;DHT22;57172;52.034;5.090;2024-03-02T02:02:53;7.30;91.00
69895;DHT22;57172;52.034;5.090;2024-03-02T02:05:21;7.30;91.30
69895;DHT22;57172;52.034;5.090;2024-03-02T02:07:48;7.20;91.40
69895;DHT22;57172;52.034;5.090;2024-03-02T02:10:15;7.20;91.40
69895;DHT22;57172;52.034;5.090;2024-03-02T02:12:42;7.10;91.40
69895;DHT22;57172;52.034;5.090;2024-03-02T02:15:26;7.10;91.50
69895;DHT22;57172;52.034;5.090;2024-03-02T02:17:57;7.20;91.50
69895;DHT22;57172;52.034;5.090;2024-03-02T02:20:25;7.10;91.60
69895;DHT22;57172;52.034;5.090;2024-03-02T02:22:59;7.10;91.60
69895;DHT22;57172;52.034;5.090;2024-03-02T02:25:28;7.10;91.60
69895;DHT22;57172;52.034;5.090;2024-03-02T02:27:56;7.10;91.80
69895;DHT22;57172;52.034;5.090;2024-03-02T02:30:28;7.10;91.90
69895;DHT22;57172;52.034;5.090;2024-03-02T02:32:55;7.10;91.90
69895;DHT22;57172;52.034;5.090;2024-03-02T02:35:23;7.10;92.00
69895;DHT22;57172;52.034;5.090;2024-03-02T02:37:54;7.10;92.00
69895;DHT22;57172;52.034;5.090;2024-03-02T02:40:25;7.10;92.10
69895;DHT22;57172;52.034;5.090;2024-03-02T02:42:55;7.10;92.20
69895;DHT22;57172;52.034;5.090;2024-03-02T02:45:22;7.10;92.30
69895;DHT22;57172;52.034;5.090;2024-03-02T02:47:50;7.10;92.40
69895;DHT22;57172;52.034;5.090;2024-03-02T02:50:17;7.10;92.30
69895;DHT22;57172;52.034;5.090;2024-03-02T02:52:44;7.10;92.20
69895;DHT22;57172;52.034;5.090;2024-03-02T02:55:12;7.10;92.20
69895;DHT22;57172;52.034;5.090;2024-03-02T02:57:40;7.10;92.20
69895;DHT22;57172;52.034;5.090;2024-03-02T03:00:14;7.10;91.90
69895;DHT22;57172;52.034;5.090;2024-03-02T03:02:44;7.10;91.90
69895;DHT22;57172;52.034;5.090;2024-03-02T03:05:13;7.10;91.70
69895;DHT22;57172;52.034;5.090;2024-03-02T03:07:42;7.00;91.50
69895;DHT22;57172;52.034;5.090;2024-03-02T03:10:10;7.10;91.20
69895;DHT22;57172;52.034;5.090;2024-03-02T03:12:37;7.00;91.10
69895;DHT22;57172;52.034;5.090;2024-03-02T03:15:05;7.00;90.90
69895;DHT22;57172;52.034;5.090;2024-03-02T03:17:33;7.00;90.80
69895;DHT22;57172;52.034;5.090;2024-03-02T03:20:02;7.00;90.80
69895;DHT22;57172;52.034;5.090;2024-03-02T03:22:31;7.00;91.00
69895;DHT22;57172;52.034;5.090;2024-03-02T03:25:02;7.00;90.90
69895;DHT22;57172;52.034;5.090;2024-03-02T03:27:30;7.00;91.00
69895;DHT22;57172;52.034;5.090;2024-03-02T03:29:57;7.10;90.80
69895;DHT22;57172;52.034;5.090;2024-03-02T03:32:23;7.10;90.70
69895;DHT22;57172;52.034;5.090;2024-03-02T03:34:51;7.10;90.70
69895;DHT22;57172;52.034;5.090;2024-03-02T03:37:18;7.10;90.50
69895;DHT22;57172;52.034;5.090;2024-03-02T03:39:45;7.10;90.60
69895;DHT22;57172;52.034;5.090;2024-03-02T03:42:12;7.20;90.70
69895;DHT22;57172;52.034;5.090;2024-03-02T03:44:39;7.20;90.40
69895;DHT22;57172;52.034;5.090;2024-03-02T03:47:07;7.20;90.40
69895;DHT22;57172;52.034;5.090;2024-03-02T03:49:34;7.20;90.40
69895;DHT22;57172;52.034;5.090;2024-03-02T03:52:00;7.20;90.40
69895;DHT22;57172;52.034;5.090;2024-03-02T03:54:27;7.20;90.30
69895;DHT22;57172;52.034;5.090;2024-03-02T03:56:55;7.20;90.30
69895;DHT22;57172;52.034;5.090;2024-03-02T03:59:23;7.20;90.20
69895;DHT22;57172;52.034;5.090;2024-03-02T04:01:50;7.20;90.10
69895;DHT22;57172;52.034;5.090;2024-03-02T04:04:17;7.20;90.20
69895;DHT22;57172;52.034;5.090;2024-03-02T04:06:44;7.20;90.20
69895;DHT22;57172;52.034;5.090;2024-03-02T04:09:11;7.30;90.10
69895;DHT22;57172;52.034;5.090;2024-03-02T04:11:38;7.30;90.10
69895;DHT22;57172;52.034;5.090;2024-03-02T04:14:05;7.30;89.80
69895;DHT22;57172;52.034;5.090;2024-03-02T04:16:33;7.30;89.60
69895;DHT22;57172;52.034;5.090;2024-03-02T04:19:00;7.30;89.60
69895;DHT22;57172;52.034;5.090;2024-03-02T04:21:27;7.30;89.60
69895;DHT22;57172;52.034;5.090;2024-03-02T04:23:53;7.30;89.60
69895;DHT22;57172;52.034;5.090;2024-03-02T04:26:24;7.30;89.40
69895;DHT22;57172;52.034;5.090;2024-03-02T04:28:52;7.30;88.70
69895;DHT22;57172;52.034;5.090;2024-03-02T04:31:20;7.30;88.70
69895;DHT22;57172;52.034;5.090;2024-03-02T04:33:46;7.30;88.60
69895;DHT22;57172;52.034;5.090;2024-03-02T04:36:13;7.30;88.40
69895;DHT22;57172;52.034;5.090;2024-03-02T04:38:40;7.20;88.30
69895;DHT22;57172;52.034;5.090;2024-03-02T04:41:07;7.20;88.20
69895;DHT22;57172;52.034;5.090;2024-03-02T04:46:02;7.10;88.40
69895;DHT22;57172;52.034;5.090;2024-03-02T04:48:29;7.00;88.40
69895;DHT22;57172;52.034;5.090;2024-03-02T04:50:56;7.00;88.40
69895;DHT22;57172;52.034;5.090;2024-03-02T04:53:23;7.00;88.50
69895;DHT22;57172;52.034;5.090;2024-03-02T04:55:50;6.90;88.70
69895;DHT22;57172;52.034;5.090;2024-03-02T04:58:35;6.90;88.90
69895;DHT22;57172;52.034;5.090;2024-03-02T05:01:02;6.80;89.00
69895;DHT22;57172;52.034;5.090;2024-03-02T05:03:29;6.80;89.10
69895;DHT22;57172;52.034;5.090;2024-03-02T05:05:57;6.70;89.20
69895;DHT22;57172;52.034;5.090;2024-03-02T05:08:23;6.70;89.20
69895;DHT22;57172;52.034;5.090;2024-03-02T05:10:51;6.70;89.20
69895;DHT22;57172;52.034;5.090;2024-03-02T05:13:18;6.70;89.30
69895;DHT22;57172;52.034;5.090;2024-03-02T05:15:45;6.60;89.40
69895;DHT22;57172;52.034;5.090;2024-03-02T05:18:12;6.60;89.40
69895;DHT22;57172;52.034;5.090;2024-03-02T05:25:56;6.60;89.30
69895;DHT22;57172;52.034;5.090;2024-03-02T05:28:23;6.60;89.30
69895;DHT22;57172;52.034;5.090;2024-03-02T05:30:50;6.60;89.30
69895;DHT22;57172;52.034;5.090;2024-03-02T05:33:16;6.60;89.30
69895;DHT22;57172;52.034;5.090;2024-03-02T05:35:44;6.60;89.20
69895;DHT22;57172;52.034;5.090;2024-03-02T05:38:11;6.50;89.10
69895;DHT22;57172;52.034;5.090;2024-03-02T05:40:40;6.50;88.90
69895;DHT22;57172;52.034;5.090;2024-03-02T05:43:07;6.50;89.00
69895;DHT22;57172;52.034;5.090;2024-03-02T05:45:34;6.60;88.60
69895;DHT22;57172;52.034;5.090;2024-03-02T05:48:01;6.60;88.40
69895;DHT22;57172;52.034;5.090;2024-03-02T05:50:28;6.70;88.00
69895;DHT22;57172;52.034;5.090;2024-03-02T05:52:55;6.70;87.60
69895;DHT22;57172;52.034;5.090;2024-03-02T05:55:23;6.80;87.60
69895;DHT22;57172;52.034;5.090;2024-03-02T06:00:32;6.90;86.90
69895;DHT22;57172;52.034;5.090;2024-03-02T06:02:59;7.00;87.20
69895;DHT22;57172;52.034;5.090;2024-03-02T06:05:26;7.00;86.90
69895;DHT22;57172;52.034;5.090;2024-03-02T06:07:53;7.00;86.80
69895;DHT22;57172;52.034;5.090;2024-03-02T06:10:20;7.00;86.70
69895;DHT22;57172;52.034;5.090;2024-03-02T06:12:47;7.00;86.60
69895;DHT22;57172;52.034;5.090;2024-03-02T06:15:14;7.00;86.50
69895;DHT22;57172;52.034;5.090;2024-03-02T06:17:41;7.00;86.50
69895;DHT22;57172;52.034;5.090;2024-03-02T06:20:08;7.00;86.50
69895;DHT22;57172;52.034;5.090;2024-03-02T06:22:36;7.00;86.50
69895;DHT22;57172;52.034;5.090;2024-03-02T06:25:03;6.90;86.70
69895;DHT22;57172;52.034;5.090;2024-03-02T06:27:30;6.90;86.90
69895;DHT22;57172;52.034;5.090;2024-03-02T06:29:57;6.90;87.00
69895;DHT22;57172;52.034;5.090;2024-03-02T06:32:24;6.90;87.00
69895;DHT22;57172;52.034;5.090;2024-03-02T06:34:52;6.90;86.80
69895;DHT22;57172;52.034;5.090;2024-03-02T06:37:18;6.80;86.80
69895;DHT22;57172;52.034;5.090;2024-03-02T06:39:45;6.80;86.70
69895;DHT22;57172;52.034;5.090;2024-03-02T06:42:12;6.80;86.60
69895;DHT22;57172;52.034;5.090;2024-03-02T06:44:39;6.80;86.90
69895;DHT22;57172;52.034;5.090;2024-03-02T06:47:06;6.80;86.80
69895;DHT22;57172;52.034;5.090;2024-03-02T06:49:33;6.80;86.70
69895;DHT22;57172;52.034;5.090;2024-03-02T06:52:01;6.80;86.90
69895;DHT22;57172;52.034;5.090;2024-03-02T06:54:28;6.80;86.90
69895;DHT22;57172;52.034;5.090;2024-03-02T06:56:55;6.80;86.90
69895;DHT22;57172;52.034;5.090;2024-03-02T06:59:21;6.90;86.40
69895;DHT22;57172;52.034;5.090;2024-03-02T07:01:48;6.90;86.30
69895;DHT22;57172;52.034;5.090;2024-03-02T07:04:15;6.90;85.90
69895;DHT22;57172;52.034;5.090;2024-03-02T07:06:42;6.90;86.10
69895;DHT22;57172;52.034;5.090;2024-03-02T07:09:09;7.00;86.20
69895;DHT22;57172;52.034;5.090;2024-03-02T07:11:37;7.00;86.10
69895;DHT22;57172;52.034;5.090;2024-03-02T07:14:24;7.00;85.90
69895;DHT22;57172;52.034;5.090;2024-03-02T07:17:13;7.00;85.60
69895;DHT22;57172;52.034;5.090;2024-03-02T07:19:40;7.10;86.20
69895;DHT22;57172;52.034;5.090;2024-03-02T07:22:08;7.30;86.80
69895;DHT22;57172;52.034;5.090;2024-03-02T07:24:44;7.50;86.80
69895;DHT22;57172;52.034;5.090;2024-03-02T07:27:13;7.60;86.40
69895;DHT22;57172;52.034;5.090;2024-03-02T07:29:40;7.80;85.30
69895;DHT22;57172;52.034;5.090;2024-03-02T07:32:08;7.90;85.10
69895;DHT22;57172;52.034;5.090;2024-03-02T07:34:35;8.00;83.80
69895;DHT22;57172;52.034;5.090;2024-03-02T07:37:02;8.00;82.30
69895;DHT22;57172;52.034;5.090;2024-03-02T07:39:29;7.90;82.20
69895;DHT22;57172;52.034;5.090;2024-03-02T07:41:56;7.90;81.50
69895;DHT22;57172;52.034;5.090;2024-03-02T07:44:24;7.90;81.10
69895;DHT22;57172;52.034;5.090;2024-03-02T07:46:51;7.80;81.30
69895;DHT22;57172;52.034;5.090;2024-03-02T07:49:18;7.80;81.20
69895;DHT22;57172;52.034;5.090;2024-03-02T07:51:45;7.80;80.90
69895;DHT22;57172;52.034;5.090;2024-03-02T07:54:12;7.70;81.20
69895;DHT22;57172;52.034;5.090;2024-03-02T07:56:39;7.70;81.50
69895;DHT22;57172;52.034;5.090;2024-03-02T07:59:06;7.80;81.90
69895;DHT22;57172;52.034;5.090;2024-03-02T08:01:34;7.80;82.00
69895;DHT22;57172;52.034;5.090;2024-03-02T08:04:02;7.80;81.90
69895;DHT22;57172;52.034;5.090;2024-03-02T08:06:30;7.90;82.50
69895;DHT22;57172;52.034;5.090;2024-03-02T08:08:58;8.10;82.60
69895;DHT22;57172;52.034;5.090;2024-03-02T08:11:25;8.20;82.40
69895;DHT22;57172;52.034;5.090;2024-03-02T08:13:53;8.30;81.70
69895;DHT22;57172;52.034;5.090;2024-03-02T08:16:23;8.40;79.90
69895;DHT22;57172;52.034;5.090;2024-03-02T08:18:51;8.40;80.00
69895;DHT22;57172;52.034;5.090;2024-03-02T08:21:18;8.40;80.10
69895;DHT22;57172;52.034;5.090;2024-03-02T08:23:45;8.50;79.30
69895;DHT22;57172;52.034;5.090;2024-03-02T08:26:12;8.60;79.30
69895;DHT22;57172;52.034;5.090;2024-03-02T08:28:39;8.80;80.50
69895;DHT22;57172;52.034;5.090;2024-03-02T08:31:09;9.10;80.40
69895;DHT22;57172;52.034;5.090;2024-03-02T08:33:36;9.50;80.80
69895;DHT22;57172;52.034;5.090;2024-03-02T08:36:05;9.80;79.40
69895;DHT22;57172;52.034;5.090;2024-03-02T08:38:32;10.20;80.40
69895;DHT22;57172;52.034;5.090;2024-03-02T08:40:59;10.60;78.50
69895;DHT22;57172;52.034;5.090;2024-03-02T08:43:26;10.90;76.10
69895;DHT22;57172;52.034;5.090;2024-03-02T08:45:53;11.20;74.30
69895;DHT22;57172;52.034;5.090;2024-03-02T08:48:45;11.40;74.60
69895;DHT22;57172;52.034;5.090;2024-03-02T08:51:12;11.70;73.20
69895;DHT22;57172;52.034;5.090;2024-03-02T08:53:39;11.90;70.60
69895;DHT22;57172;52.034;5.090;2024-03-02T08:56:06;12.20;71.00
69895;DHT22;57172;52.034;5.090;2024-03-02T08:58:34;12.40;68.90
69895;DHT22;57172;52.034;5.090;2024-03-02T09:01:01;12.50;68.50
69895;DHT22;57172;52.034;5.090;2024-03-02T09:03:28;12.80;70.50
69895;DHT22;57172;52.034;5.090;2024-03-02T09:05:55;13.10;67.10
69895;DHT22;57172;52.034;5.090;2024-03-02T09:08:22;13.10;66.40
69895;DHT22;57172;52.034;5.090;2024-03-02T09:10:49;13.40;65.80
69895;DHT22;57172;52.034;5.090;2024-03-02T09:13:16;13.60;64.80
69895;DHT22;57172;52.034;5.090;2024-03-02T09:15:44;13.70;64.10
69895;DHT22;57172;52.034;5.090;2024-03-02T09:18:11;13.70;62.50
69895;DHT22;57172;52.034;5.090;2024-03-02T09:20:39;13.80;63.60
69895;DHT22;57172;52.034;5.090;2024-03-02T09:23:06;14.10;63.10
69895;DHT22;57172;52.034;5.090;2024-03-02T09:25:33;14.40;62.60
69895;DHT22;57172;52.034;5.090;2024-03-02T09:28:00;14.60;60.40
69895;DHT22;57172;52.034;5.090;2024-03-02T09:30:27;14.60;59.70
69895;DHT22;57172;52.034;5.090;2024-03-02T09:32:54;14.60;58.20
69895;DHT22;57172;52.034;5.090;2024-03-02T09:35:40;14.50;58.90
69895;DHT22;57172;52.034;5.090;2024-03-02T09:38:07;14.70;59.30
69895;DHT22;57172;52.034;5.090;2024-03-02T09:40:34;14.90;59.50
69895;DHT22;57172;52.034;5.090;2024-03-02T09:43:01;15.00;57.60
69895;DHT22;57172;52.034;5.090;2024-03-02T09:45:30;15.00;57.70
69895;DHT22;57172;52.034;5.090;2024-03-02T09:47:57;15.20;56.80
69895;DHT22;57172;52.034;5.090;2024-03-02T09:50:24;15.50;58.10
69895;DHT22;57172;52.034;5.090;2024-03-02T09:52:50;15.90;55.60
69895;DHT22;57172;52.034;5.090;2024-03-02T09:55:19;16.00;56.00
69895;DHT22;57172;52.034;5.090;2024-03-02T09:57:46;16.10;53.40
69895;DHT22;57172;52.034;5.090;2024-03-02T10:00:15;16.10;54.00
69895;DHT22;57172;52.034;5.090;2024-03-02T10:02:43;16.30;53.00
69895;DHT22;57172;52.034;5.090;2024-03-02T10:05:10;16.30;53.70
69895;DHT22;57172;52.034;5.090;2024-03-02T10:07:38;16.60;52.80
69895;DHT22;57172;52.034;5.090;2024-03-02T10:10:15;16.80;52.10
69895;DHT22;57172;52.034;5.090;2024-03-02T10:12:42;17.10;50.70
69895;DHT22;57172;52.034;5.090;2024-03-02T10:15:09;17.10;50.40
69895;DHT22;57172;52.034;5.090;2024-03-02T10:17:37;17.10;50.40
69895;DHT22;57172;52.034;5.090;2024-03-02T10:20:26;17.10;49.70
69895;DHT22;57172;52.034;5.090;2024-03-02T10:22:56;17.20;48.80
69895;DHT22;57172;52.034;5.090;2024-03-02T10:25:36;17.30;50.70
69895;DHT22;57172;52.034;5.090;2024-03-02T10:28:17;17.60;49.30
69895;DHT22;57172;52.034;5.090;2024-03-02T10:30:47;17.80;48.90
69895;DHT22;57172;52.034;5.090;2024-03-02T10:33:18;17.80;46.40
69895;DHT22;57172;52.034;5.090;2024-03-02T10:36:00;17.60;46.80
69895;DHT22;57172;52.034;5.090;2024-03-02T10:38:28;17.60;48.00
69895;DHT22;57172;52.034;5.090;2024-03-02T10:40:55;18.10;48.80
69895;DHT22;57172;52.034;5.090;2024-03-02T10:43:23;18.50;48.70
69895;DHT22;57172;52.034;5.090;2024-03-02T10:45:50;19.10;46.40
69895;DHT22;57172;52.034;5.090;2024-03-02T10:48:24;19.20;46.00
69895;DHT22;57172;52.034;5.090;2024-03-02T10:50:52;19.20;44.40
69895;DHT22;57172;52.034;5.090;2024-03-02T10:53:19;19.10;45.80
69895;DHT22;57172;52.034;5.090;2024-03-02T10:55:48;19.20;43.60
69895;DHT22;57172;52.034;5.090;2024-03-02T10:58:18;19.00;43.40
69895;DHT22;57172;52.034;5.090;2024-03-02T11:00:46;18.80;45.00
69895;DHT22;57172;52.034;5.090;2024-03-02T11:03:14;19.10;44.80
69895;DHT22;57172;52.034;5.090;2024-03-02T11:05:43;19.20;44.60
69895;DHT22;57172;52.034;5.090;2024-03-02T11:08:18;19.60;44.30
69895;DHT22;57172;52.034;5.090;2024-03-02T11:10:53;19.90;43.50
69895;DHT22;57172;52.034;5.090;2024-03-02T11:18:48;20.30;42.30
69895;DHT22;57172;52.034;5.090;2024-03-02T11:21:37;20.50;42.70
69895;DHT22;57172;52.034;5.090;2024-03-02T11:26:52;20.50;39.70
69895;DHT22;57172;52.034;5.090;2024-03-02T11:32:18;20.40;41.30
69895;DHT22;57172;52.034;5.090;2024-03-02T11:34:49;20.50;41.10
69895;DHT22;57172;52.034;5.090;2024-03-02T11:37:18;20.70;41.00
69895;DHT22;57172;52.034;5.090;2024-03-02T11:39:46;20.80;41.90
69895;DHT22;57172;52.034;5.090;2024-03-02T11:42:14;21.20;42.60
69895;DHT22;57172;52.034;5.090;2024-03-02T11:44:44;21.60;40.70
69895;DHT22;57172;52.034;5.090;2024-03-02T11:47:16;21.80;40.00
69895;DHT22;57172;52.034;5.090;2024-03-02T11:49:49;21.80;39.70
69895;DHT22;57172;52.034;5.090;2024-03-02T11:52:17;21.80;40.30
69895;DHT22;57172;52.034;5.090;2024-03-02T11:54:45;21.90;39.10
69895;DHT22;57172;52.034;5.090;2024-03-02T11:57:19;21.60;38.70
69895;DHT22;57172;52.034;5.090;2024-03-02T11:59:47;21.10;38.10
69895;DHT22;57172;52.034;5.090;2024-03-02T12:02:17;20.40;37.80
69895;DHT22;57172;52.034;5.090;2024-03-02T12:04:45;19.40;39.00
69895;DHT22;57172;52.034;5.090;2024-03-02T12:07:21;19.00;41.30
69895;DHT22;57172;52.034;5.090;2024-03-02T12:10:02;19.50;42.70
69895;DHT22;57172;52.034;5.090;2024-03-02T12:12:30;20.50;42.30
69895;DHT22;57172;52.034;5.090;2024-03-02T12:14:57;20.80;40.20
69895;DHT22;57172;52.034;5.090;2024-03-02T12:17:26;21.20;40.70
69895;DHT22;57172;52.034;5.090;2024-03-02T12:22:29;22.00;40.30
69895;DHT22;57172;52.034;5.090;2024-03-02T12:24:56;22.40;39.20
69895;DHT22;57172;52.034;5.090;2024-03-02T12:27:24;22.80;37.90
69895;DHT22;57172;52.034;5.090;2024-03-02T12:29:51;22.90;37.70
69895;DHT22;57172;52.034;5.090;2024-03-02T12:32:18;22.80;37.60
69895;DHT22;57172;52.034;5.090;2024-03-02T12:34:47;22.90;37.20
69895;DHT22;57172;52.034;5.090;2024-03-02T12:37:14;22.80;37.10
69895;DHT22;57172;52.034;5.090;2024-03-02T12:39:45;22.60;36.80
69895;DHT22;57172;52.034;5.090;2024-03-02T12:42:12;22.60;38.20
69895;DHT22;57172;52.034;5.090;2024-03-02T12:44:40;22.80;37.10
69895;DHT22;57172;52.034;5.090;2024-03-02T12:47:06;22.70;36.40
69895;DHT22;57172;52.034;5.090;2024-03-02T12:49:35;22.30;37.10
69895;DHT22;57172;52.034;5.090;2024-03-02T12:52:02;22.50;37.50
69895;DHT22;57172;52.034;5.090;2024-03-02T12:54:29;22.70;37.10
69895;DHT22;57172;52.034;5.090;2024-03-02T12:56:57;23.20;37.50
69895;DHT22;57172;52.034;5.090;2024-03-02T12:59:25;23.70;37.00
69895;DHT22;57172;52.034;5.090;2024-03-02T13:01:55;24.00;35.70
69895;DHT22;57172;52.034;5.090;2024-03-02T13:04:28;24.30;36.20
69895;DHT22;57172;52.034;5.090;2024-03-02T13:06:55;24.70;35.60
69895;DHT22;57172;52.034;5.090;2024-03-02T13:09:26;25.10;35.70
69895;DHT22;57172;52.034;5.090;2024-03-02T13:11:54;25.50;35.40
69895;DHT22;57172;52.034;5.090;2024-03-02T13:14:22;25.60;34.00
69895;DHT22;57172;52.034;5.090;2024-03-02T13:16:51;25.60;34.70
69895;DHT22;57172;52.034;5.090;2024-03-02T13:19:19;25.70;33.80
69895;DHT22;57172;52.034;5.090;2024-03-02T13:21:46;25.80;34.60
69895;DHT22;57172;52.034;5.090;2024-03-02T13:24:13;26.00;34.40
69895;DHT22;57172;52.034;5.090;2024-03-02T13:26:40;26.10;33.80
69895;DHT22;57172;52.034;5.090;2024-03-02T13:29:08;25.80;32.80
69895;DHT22;57172;52.034;5.090;2024-03-02T13:31:35;24.80;33.10
69895;DHT22;57172;52.034;5.090;2024-03-02T13:34:01;24.00;34.20
69895;DHT22;57172;52.034;5.090;2024-03-02T13:36:28;23.50;34.80
69895;DHT22;57172;52.034;5.090;2024-03-02T13:38:55;23.00;35.60
69895;DHT22;57172;52.034;5.090;2024-03-02T13:41:23;22.50;35.40
69895;DHT22;57172;52.034;5.090;2024-03-02T13:43:50;21.90;36.20
69895;DHT22;57172;52.034;5.090;2024-03-02T13:46:19;21.50;37.20
69895;DHT22;57172;52.034;5.090;2024-03-02T13:48:47;21.40;37.30
69895;DHT22;57172;52.034;5.090;2024-03-02T13:51:14;21.10;37.40
69895;DHT22;57172;52.034;5.090;2024-03-02T13:53:41;20.80;38.40
69895;DHT22;57172;52.034;5.090;2024-03-02T13:56:08;20.70;38.20
69895;DHT22;57172;52.034;5.090;2024-03-02T13:58:35;20.40;37.80
69895;DHT22;57172;52.034;5.090;2024-03-02T14:01:02;19.80;38.30
69895;DHT22;57172;52.034;5.090;2024-03-02T14:03:31;19.40;39.70
69895;DHT22;57172;52.034;5.090;2024-03-02T14:05:59;19.30;40.50
69895;DHT22;57172;52.034;5.090;2024-03-02T14:08:35;19.30;40.70
69895;DHT22;57172;52.034;5.090;2024-03-02T14:11:02;19.30;41.50
69895;DHT22;57172;52.034;5.090;2024-03-02T14:13:30;19.30;42.10
69895;DHT22;57172;52.034;5.090;2024-03-02T14:15:57;19.30;42.50
69895;DHT22;57172;52.034;5.090;2024-03-02T14:18:24;19.50;43.00
69895;DHT22;57172;52.034;5.090;2024-03-02T14:20:51;19.60;42.50
69895;DHT22;57172;52.034;5.090;2024-03-02T14:23:19;19.60;42.40
69895;DHT22;57172;52.034;5.090;2024-03-02T14:25:47;19.60;42.40
69895;DHT22;57172;52.034;5.090;2024-03-02T14:28:17;19.40;42.30
69895;DHT22;57172;52.034;5.090;2024-03-02T14:31:06;19.10;42.50
69895;DHT22;57172;52.034;5.090;2024-03-02T14:33:33;19.20;44.10
69895;DHT22;57172;52.034;5.090;2024-03-02T14:36:00;19.80;44.60
69895;DHT22;57172;52.034;5.090;2024-03-02T14:41:01;20.60;42.90
69895;DHT22;57172;52.034;5.090;2024-03-02T14:43:53;20.90;43.30
69895;DHT22;57172;52.034;5.090;2024-03-02T14:46:20;21.50;42.40
69895;DHT22;57172;52.034;5.090;2024-03-02T14:48:47;21.60;41.40
69895;DHT22;57172;52.034;5.090;2024-03-02T14:51:14;21.20;40.30
69895;DHT22;57172;52.034;5.090;2024-03-02T14:53:41;20.70;40.60
69895;DHT22;57172;52.034;5.090;2024-03-02T14:56:08;20.20;41.70
69895;DHT22;57172;52.034;5.090;2024-03-02T14:58:36;19.80;41.70
69895;DHT22;57172;52.034;5.090;2024-03-02T15:01:04;19.40;42.20
69895;DHT22;57172;52.034;5.090;2024-03-02T15:03:33;19.00;42.60
69895;DHT22;57172;52.034;5.090;2024-03-02T15:06:01;18.50;43.20
69895;DHT22;57172;52.034;5.090;2024-03-02T15:08:28;18.10;43.80
69895;DHT22;57172;52.034;5.090;2024-03-02T15:10:58;17.80;44.70
69895;DHT22;57172;52.034;5.090;2024-03-02T15:15:57;17.50;46.20
69895;DHT22;57172;52.034;5.090;2024-03-02T15:18:35;17.50;46.90
69895;DHT22;57172;52.034;5.090;2024-03-02T15:21:02;17.80;48.10
69895;DHT22;57172;52.034;5.090;2024-03-02T15:23:29;18.10;47.30
69895;DHT22;57172;52.034;5.090;2024-03-02T15:25:56;18.10;46.30
69895;DHT22;57172;52.034;5.090;2024-03-02T15:28:23;17.90;46.10
69895;DHT22;57172;52.034;5.090;2024-03-02T15:30:50;17.60;46.20
69895;DHT22;57172;52.034;5.090;2024-03-02T15:33:21;17.30;46.40
69895;DHT22;57172;52.034;5.090;2024-03-02T15:35:51;17.00;47.00
69895;DHT22;57172;52.034;5.090;2024-03-02T15:38:18;16.80;47.60
69895;DHT22;57172;52.034;5.090;2024-03-02T15:40:58;16.70;47.70
69895;DHT22;57172;52.034;5.090;2024-03-02T15:43:25;16.50;48.10
69895;DHT22;57172;52.034;5.090;2024-03-02T15:45:52;16.30;48.10
69895;DHT22;57172;52.034;5.090;2024-03-02T15:50:57;16.10;49.20
69895;DHT22;57172;52.034;5.090;2024-03-02T15:56:03;16.10;50.00
69895;DHT22;57172;52.034;5.090;2024-03-02T15:58:35;16.00;50.10
69895;DHT22;57172;52.034;5.090;2024-03-02T16:01:03;16.10;50.40
69895;DHT22;57172;52.034;5.090;2024-03-02T16:03:30;16.00;50.40
69895;DHT22;57172;52.034;5.090;2024-03-02T16:05:59;16.00;50.50
69895;DHT22;57172;52.034;5.090;2024-03-02T16:08:26;16.00;50.60
69895;DHT22;57172;52.034;5.090;2024-03-02T16:10:53;16.00;51.00
69895;DHT22;57172;52.034;5.090;2024-03-02T16:13:20;16.00;51.30
69895;DHT22;57172;52.034;5.090;2024-03-02T16:15:47;15.90;51.60
69895;DHT22;57172;52.034;5.090;2024-03-02T16:18:14;15.80;51.70
69895;DHT22;57172;52.034;5.090;2024-03-02T16:20:41;15.80;51.70
69895;DHT22;57172;52.034;5.090;2024-03-02T16:23:08;15.70;52.00
69895;DHT22;57172;52.034;5.090;2024-03-02T16:25:34;15.60;52.40
69895;DHT22;57172;52.034;5.090;2024-03-02T16:28:03;15.50;52.80